createdAt,value
2023-02-13T00:00:05.160Z,0.00
2023-02-13T00:01:05.115Z,0.00
2023-02-13T00:02:05.134Z,0.00
2023-02-13T00:03:05.045Z,0.00
2023-02-13T00:04:05.012Z,0.00
2023-02-13T00:05:25.971Z,0.00
2023-02-13T00:06:04.932Z,0.00
2023-02-13T00:07:04.897Z,0.00
2023-02-13T00:08:04.869Z,0.00
2023-02-13T00:09:07.076Z,0.00
2023-02-13T00:10:04.782Z,0.00
2023-02-13T00:11:25.742Z,0.00
2023-02-13T00:12:04.710Z,0.00
2023-02-13T00:13:04.682Z,0.00
2023-02-13T00:14:04.677Z,0.00
2023-02-13T00:15:04.650Z,0.00
2023-02-13T00:16:04.628Z,0.00
2023-02-13T00:17:25.525Z,0.00
2023-02-13T00:18:04.515Z,0.00
2023-02-13T00:19:04.489Z,0.00
2023-02-13T00:20:04.420Z,0.00
2023-02-13T00:21:04.390Z,0.00
2023-02-13T00:22:04.354Z,0.00
2023-02-13T00:23:25.307Z,0.00
2023-02-13T00:24:04.276Z,0.00
2023-02-13T00:25:04.255Z,0.00
2023-02-13T00:26:04.202Z,0.00
2023-02-13T00:27:04.166Z,0.00
2023-02-13T00:28:04.154Z,0.00
2023-02-13T00:29:25.098Z,0.00
2023-02-13T00:30:04.060Z,0.00
2023-02-13T00:31:04.092Z,0.00
2023-02-13T00:32:04.159Z,0.00
2023-02-13T00:33:03.947Z,0.00
2023-02-13T00:34:03.902Z,0.00
2023-02-13T00:35:24.877Z,0.00
2023-02-13T00:36:03.844Z,0.00
2023-02-13T00:37:03.813Z,0.00
2023-02-13T00:38:03.764Z,0.00
2023-02-13T00:39:03.729Z,0.00
2023-02-13T00:40:03.689Z,0.00
2023-02-13T00:41:24.653Z,0.00
2023-02-13T00:42:03.627Z,0.00
2023-02-13T00:43:03.577Z,0.00
2023-02-13T00:44:03.546Z,0.00
2023-02-13T00:45:03.521Z,0.00
2023-02-13T00:46:03.508Z,0.00
2023-02-13T00:47:24.448Z,0.00
2023-02-13T00:48:03.396Z,0.00
2023-02-13T00:49:03.358Z,0.00
2023-02-13T00:50:03.317Z,0.00
2023-02-13T00:51:03.296Z,0.00
2023-02-13T00:52:03.250Z,0.00
2023-02-13T00:53:24.208Z,0.00
2023-02-13T00:54:03.189Z,0.00
2023-02-13T00:55:03.172Z,0.00
2023-02-13T00:56:03.100Z,0.00
2023-02-13T00:57:03.064Z,0.00
2023-02-13T00:58:03.058Z,0.00
2023-02-13T00:59:23.986Z,0.00
2023-02-13T01:00:02.957Z,0.00
2023-02-13T01:01:02.928Z,0.00
2023-02-13T01:02:02.891Z,0.00
2023-02-13T01:03:02.843Z,0.00
2023-02-13T01:04:02.874Z,0.00
2023-02-13T01:05:23.769Z,0.00
2023-02-13T01:06:02.738Z,0.00
2023-02-13T01:07:02.706Z,0.00
2023-02-13T01:08:02.668Z,0.00
2023-02-13T01:09:02.647Z,0.00
2023-02-13T01:10:02.592Z,0.00
2023-02-13T01:11:23.551Z,0.00
2023-02-13T01:12:02.522Z,0.00
2023-02-13T01:13:02.483Z,0.00
2023-02-13T01:14:02.446Z,0.00
2023-02-13T01:15:02.413Z,0.00
2023-02-13T01:16:02.376Z,0.00
2023-02-13T01:17:23.343Z,0.00
2023-02-13T01:18:02.305Z,0.00
2023-02-13T01:19:02.271Z,0.00
2023-02-13T01:20:02.229Z,0.00
2023-02-13T01:21:02.197Z,0.00
2023-02-13T01:22:02.155Z,0.00
2023-02-13T01:23:23.135Z,0.00
2023-02-13T01:24:02.080Z,0.00
2023-02-13T01:25:02.051Z,0.00
2023-02-13T01:26:02.030Z,0.00
2023-02-13T01:27:01.971Z,0.00
2023-02-13T01:28:02.013Z,0.00
2023-02-13T01:29:22.899Z,0.00
2023-02-13T01:30:01.884Z,0.00
2023-02-13T01:31:02.324Z,0.00
2023-02-13T01:32:01.884Z,0.00
2023-02-13T01:33:01.758Z,0.00
2023-02-13T01:34:01.719Z,0.00
2023-02-13T01:35:22.677Z,0.00
2023-02-13T01:36:01.642Z,0.00
2023-02-13T01:37:01.603Z,0.00
2023-02-13T01:38:01.569Z,0.00
2023-02-13T01:39:01.527Z,0.00
2023-02-13T01:40:01.495Z,0.00
2023-02-13T01:41:22.455Z,0.00
2023-02-13T01:42:01.440Z,0.00
2023-02-13T01:43:01.390Z,0.00
2023-02-13T01:44:01.355Z,0.00
2023-02-13T01:45:01.312Z,0.00
2023-02-13T01:46:01.272Z,0.00
2023-02-13T01:47:22.239Z,0.00
2023-02-13T01:48:01.198Z,0.00
2023-02-13T01:49:01.181Z,0.00
2023-02-13T01:50:01.123Z,0.00
2023-02-13T01:51:01.100Z,0.00
2023-02-13T01:52:01.061Z,0.00
2023-02-13T01:53:22.009Z,0.00
2023-02-13T01:54:00.976Z,0.00
2023-02-13T01:55:00.941Z,0.00
2023-02-13T01:56:00.914Z,0.00
2023-02-13T01:57:00.872Z,0.00
2023-02-13T01:58:00.834Z,0.00
2023-02-13T01:59:21.790Z,0.00
2023-02-13T02:00:00.772Z,0.00
2023-02-13T02:01:00.722Z,0.00
2023-02-13T02:02:00.752Z,0.00
2023-02-13T02:03:00.665Z,0.00
2023-02-13T02:04:00.609Z,0.00
2023-02-13T02:05:21.576Z,0.00
2023-02-13T02:06:00.537Z,0.00
2023-02-13T02:07:00.499Z,0.00
2023-02-13T02:08:00.474Z,0.00
2023-02-13T02:09:00.428Z,0.00
2023-02-13T02:10:00.388Z,0.00
2023-02-13T02:11:21.374Z,0.00
2023-02-13T02:12:00.318Z,0.00
2023-02-13T02:13:00.284Z,0.00
2023-02-13T02:14:00.242Z,0.00
2023-02-13T02:15:00.213Z,0.00
2023-02-13T02:16:00.247Z,0.00
2023-02-13T02:17:21.141Z,0.00
2023-02-13T02:18:00.116Z,0.00
2023-02-13T02:19:00.060Z,0.00
2023-02-13T02:20:00.032Z,0.00
2023-02-13T02:21:00.079Z,0.00
2023-02-13T02:21:59.956Z,0.00
2023-02-13T02:23:20.919Z,0.00
2023-02-13T02:23:59.880Z,0.00
2023-02-13T02:24:59.851Z,0.00
2023-02-13T02:25:59.818Z,0.00
2023-02-13T02:26:59.805Z,0.00
2023-02-13T02:27:59.785Z,0.00
2023-02-13T02:29:20.692Z,0.00
2023-02-13T02:29:59.662Z,0.00
2023-02-13T02:31:00.124Z,0.00
2023-02-13T02:31:59.593Z,0.00
2023-02-13T02:32:59.551Z,0.00
2023-02-13T02:33:59.516Z,0.00
2023-02-13T02:35:20.486Z,0.00
2023-02-13T02:35:59.445Z,0.00
2023-02-13T02:36:59.416Z,0.00
2023-02-13T02:37:59.370Z,0.00
2023-02-13T02:38:59.333Z,0.00
2023-02-13T02:39:59.300Z,0.00
2023-02-13T02:41:20.254Z,0.00
2023-02-13T02:41:59.229Z,0.00
2023-02-13T02:42:59.189Z,0.00
2023-02-13T02:43:59.146Z,0.00
2023-02-13T02:44:59.118Z,0.00
2023-02-13T02:45:59.085Z,0.00
2023-02-13T02:47:20.030Z,0.00
2023-02-13T02:47:58.998Z,0.00
2023-02-13T02:48:58.964Z,0.00
2023-02-13T02:49:58.945Z,0.00
2023-02-13T02:50:59.089Z,0.00
2023-02-13T02:51:58.859Z,0.00
2023-02-13T02:53:19.816Z,0.00
2023-02-13T02:53:58.777Z,0.00
2023-02-13T02:54:58.767Z,0.00
2023-02-13T02:55:58.703Z,0.00
2023-02-13T02:56:58.667Z,0.00
2023-02-13T02:57:58.629Z,0.00
2023-02-13T02:59:19.592Z,0.00
2023-02-13T02:59:58.573Z,0.00
2023-02-13T03:00:58.807Z,0.00
2023-02-13T03:01:58.486Z,0.00
2023-02-13T03:02:58.456Z,0.00
2023-02-13T03:03:58.428Z,0.00
2023-02-13T03:05:19.369Z,0.00
2023-02-13T03:05:58.335Z,0.00
2023-02-13T03:06:58.294Z,0.00
2023-02-13T03:07:58.254Z,0.00
2023-02-13T03:08:58.231Z,0.00
2023-02-13T03:09:58.183Z,0.00
2023-02-13T03:11:19.160Z,0.00
2023-02-13T03:11:58.110Z,0.00
2023-02-13T03:12:58.090Z,0.00
2023-02-13T03:13:58.031Z,0.00
2023-02-13T03:14:58.001Z,0.00
2023-02-13T03:15:58.010Z,0.00
2023-02-13T03:17:18.927Z,0.00
2023-02-13T03:17:57.885Z,0.00
2023-02-13T03:18:57.847Z,0.00
2023-02-13T03:19:57.810Z,0.00
2023-02-13T03:20:58.198Z,0.00
2023-02-13T03:21:57.738Z,0.00
2023-02-13T03:23:18.697Z,0.00
2023-02-13T03:23:57.664Z,0.00
2023-02-13T03:24:57.635Z,0.00
2023-02-13T03:25:57.589Z,0.00
2023-02-13T03:26:57.573Z,0.00
2023-02-13T03:27:57.514Z,0.00
2023-02-13T03:29:18.475Z,0.00
2023-02-13T03:29:57.444Z,0.00
2023-02-13T03:30:57.749Z,0.00
2023-02-13T03:31:57.416Z,0.00
2023-02-13T03:32:57.334Z,0.00
2023-02-13T03:33:57.300Z,0.00
2023-02-13T03:35:18.251Z,0.00
2023-02-13T03:35:57.241Z,0.00
2023-02-13T03:36:57.184Z,0.00
2023-02-13T03:37:57.170Z,0.00
2023-02-13T03:38:57.135Z,0.00
2023-02-13T03:39:57.072Z,0.00
2023-02-13T03:41:18.035Z,0.00
2023-02-13T03:41:56.992Z,0.00
2023-02-13T03:42:56.957Z,0.00
2023-02-13T03:43:56.953Z,0.00
2023-02-13T03:44:56.888Z,0.00
2023-02-13T03:45:56.867Z,0.00
2023-02-13T03:47:17.802Z,0.00
2023-02-13T03:47:56.767Z,0.00
2023-02-13T03:48:56.736Z,0.00
2023-02-13T03:49:56.698Z,0.00
2023-02-13T03:50:56.995Z,0.00
2023-02-13T03:51:56.623Z,0.00
2023-02-13T03:53:17.590Z,0.00
2023-02-13T03:53:56.549Z,0.00
2023-02-13T03:54:56.508Z,0.00
2023-02-13T03:55:56.473Z,0.00
2023-02-13T03:56:56.446Z,0.00
2023-02-13T03:57:56.402Z,0.00
2023-02-13T03:59:17.355Z,0.00
2023-02-13T03:59:56.319Z,0.00
2023-02-13T04:00:56.784Z,0.00
2023-02-13T04:01:56.287Z,0.00
2023-02-13T04:02:56.209Z,0.00
2023-02-13T04:03:56.179Z,0.00
2023-02-13T04:05:17.129Z,0.00
2023-02-13T04:05:56.093Z,0.00
2023-02-13T04:06:56.078Z,0.00
2023-02-13T04:07:56.019Z,0.00
2023-02-13T04:08:55.988Z,0.00
2023-02-13T04:09:55.947Z,0.00
2023-02-13T04:11:16.915Z,0.00
2023-02-13T04:11:55.883Z,0.00
2023-02-13T04:12:55.846Z,0.00
2023-02-13T04:13:55.807Z,0.00
2023-02-13T04:14:55.756Z,0.00
2023-02-13T04:15:55.724Z,0.00
2023-02-13T04:17:16.678Z,0.00
2023-02-13T04:17:55.654Z,0.00
2023-02-13T04:18:55.614Z,0.00
2023-02-13T04:19:55.576Z,0.00
2023-02-13T04:20:55.933Z,0.00
2023-02-13T04:21:55.498Z,0.00
2023-02-13T04:23:16.459Z,0.00
2023-02-13T04:23:55.428Z,0.00
2023-02-13T04:24:55.383Z,0.00
2023-02-13T04:25:55.346Z,0.00
2023-02-13T04:26:55.310Z,0.00
2023-02-13T04:27:55.269Z,0.00
2023-02-13T04:29:16.241Z,0.00
2023-02-13T04:29:55.205Z,0.00
2023-02-13T04:30:55.331Z,0.00
2023-02-13T04:31:55.201Z,0.00
2023-02-13T04:32:55.087Z,0.00
2023-02-13T04:33:55.069Z,0.00
2023-02-13T04:35:16.028Z,0.00
2023-02-13T04:35:54.973Z,0.00
2023-02-13T04:36:54.944Z,0.00
2023-02-13T04:37:54.904Z,0.00
2023-02-13T04:38:54.859Z,0.00
2023-02-13T04:39:54.839Z,0.00
2023-02-13T04:41:15.778Z,0.00
2023-02-13T04:41:54.751Z,0.00
2023-02-13T04:42:54.715Z,0.00
2023-02-13T04:43:54.673Z,0.00
2023-02-13T04:44:54.645Z,0.00
2023-02-13T04:45:54.683Z,0.00
2023-02-13T04:47:15.557Z,0.00
2023-02-13T04:47:54.526Z,0.00
2023-02-13T04:48:54.496Z,0.00
2023-02-13T04:49:54.489Z,0.00
2023-02-13T04:50:54.472Z,0.00
2023-02-13T04:51:54.378Z,0.00
2023-02-13T04:53:15.346Z,0.00
2023-02-13T04:53:54.296Z,0.00
2023-02-13T04:54:54.274Z,0.00
2023-02-13T04:55:54.227Z,0.00
2023-02-13T04:56:54.194Z,0.00
2023-02-13T04:57:54.151Z,0.00
2023-02-13T04:59:15.114Z,0.00
2023-02-13T04:59:54.071Z,0.00
2023-02-13T05:00:54.093Z,0.00
2023-02-13T05:01:53.998Z,0.00
2023-02-13T05:02:53.964Z,0.00
2023-02-13T05:03:53.923Z,0.00
2023-02-13T05:05:14.878Z,0.00
2023-02-13T05:05:53.852Z,0.00
2023-02-13T05:06:53.811Z,0.00
2023-02-13T05:07:53.790Z,0.00
2023-02-13T05:08:53.734Z,0.00
2023-02-13T05:09:53.699Z,0.00
2023-02-13T05:11:14.655Z,0.00
2023-02-13T05:11:53.621Z,0.00
2023-02-13T05:12:53.584Z,0.00
2023-02-13T05:13:53.545Z,0.00
2023-02-13T05:14:53.503Z,0.00
2023-02-13T05:15:53.495Z,0.00
2023-02-13T05:17:14.432Z,0.00
2023-02-13T05:17:53.391Z,0.00
2023-02-13T05:18:53.355Z,0.00
2023-02-13T05:19:53.317Z,0.00
2023-02-13T05:20:53.277Z,0.00
2023-02-13T05:21:53.239Z,0.00
2023-02-13T05:23:14.204Z,0.00
2023-02-13T05:23:53.163Z,0.00
2023-02-13T05:24:53.132Z,0.00
2023-02-13T05:25:53.090Z,0.00
2023-02-13T05:26:53.147Z,0.00
2023-02-13T05:27:53.019Z,0.00
2023-02-13T05:29:13.968Z,0.00
2023-02-13T05:29:52.946Z,0.00
2023-02-13T05:30:53.032Z,0.00
2023-02-13T05:31:53.039Z,0.00
2023-02-13T05:32:52.832Z,0.00
2023-02-13T05:33:52.785Z,0.00
2023-02-13T05:35:13.741Z,0.00
2023-02-13T05:35:52.710Z,0.00
2023-02-13T05:36:52.676Z,0.00
2023-02-13T05:37:52.638Z,0.00
2023-02-13T05:38:52.598Z,0.00
2023-02-13T05:39:52.565Z,0.00
2023-02-13T05:41:13.527Z,0.00
2023-02-13T05:41:52.485Z,0.00
2023-02-13T05:42:52.494Z,0.00
2023-02-13T05:43:52.419Z,0.00
2023-02-13T05:44:52.372Z,0.00
2023-02-13T05:45:52.330Z,0.00
2023-02-13T05:47:13.307Z,0.00
2023-02-13T05:47:52.263Z,0.00
2023-02-13T05:48:52.236Z,0.00
2023-02-13T05:49:52.191Z,0.00
2023-02-13T05:50:52.149Z,0.00
2023-02-13T05:51:52.112Z,0.00
2023-02-13T05:53:13.065Z,0.00
2023-02-13T05:53:52.034Z,0.00
2023-02-13T05:54:51.994Z,0.00
2023-02-13T05:55:51.957Z,0.00
2023-02-13T05:56:51.919Z,0.00
2023-02-13T05:57:51.876Z,0.00
2023-02-13T05:59:12.836Z,0.00
2023-02-13T05:59:51.816Z,0.00
2023-02-13T06:00:51.765Z,0.00
2023-02-13T06:01:51.731Z,0.00
2023-02-13T06:02:51.754Z,0.00
2023-02-13T06:03:51.714Z,0.00
2023-02-13T06:05:12.621Z,0.00
2023-02-13T06:05:51.571Z,0.00
2023-02-13T06:06:51.553Z,0.00
2023-02-13T06:07:51.493Z,0.00
2023-02-13T06:08:51.459Z,0.00
2023-02-13T06:09:51.422Z,0.00
2023-02-13T06:11:12.374Z,0.00
2023-02-13T06:11:51.345Z,0.00
2023-02-13T06:12:51.306Z,0.00
2023-02-13T06:13:51.272Z,0.00
2023-02-13T06:14:51.232Z,0.00
2023-02-13T06:15:51.243Z,0.00
2023-02-13T06:17:12.152Z,0.00
2023-02-13T06:17:51.117Z,0.00
2023-02-13T06:18:51.076Z,0.00
2023-02-13T06:19:51.038Z,0.00
2023-02-13T06:20:51.070Z,0.00
2023-02-13T06:21:50.969Z,0.00
2023-02-13T06:23:11.925Z,0.00
2023-02-13T06:23:50.894Z,0.00
2023-02-13T06:24:50.852Z,4.00
2023-02-13T06:25:50.810Z,4.00
2023-02-13T06:26:50.774Z,0.00
2023-02-13T06:27:50.734Z,4.00
2023-02-13T06:29:11.708Z,4.00
2023-02-13T06:29:50.657Z,4.00
2023-02-13T06:30:50.698Z,4.00
2023-02-13T06:31:50.631Z,4.00
2023-02-13T06:32:50.550Z,8.00
2023-02-13T06:33:50.507Z,8.00
2023-02-13T06:35:11.463Z,8.00
2023-02-13T06:35:50.428Z,12.00
2023-02-13T06:36:50.399Z,12.00
2023-02-13T06:37:50.354Z,16.00
2023-02-13T06:38:50.324Z,16.00
2023-02-13T06:39:50.282Z,20.00
2023-02-13T06:41:11.242Z,20.00
2023-02-13T06:41:50.203Z,28.00
2023-02-13T06:42:50.166Z,28.00
2023-02-13T06:43:50.124Z,32.00
2023-02-13T06:44:50.098Z,40.00
2023-02-13T06:45:50.049Z,44.00
2023-02-13T06:47:11.013Z,48.00
2023-02-13T06:47:49.974Z,56.00
2023-02-13T06:48:49.938Z,56.00
2023-02-13T06:49:49.906Z,64.00
2023-02-13T06:50:49.857Z,72.00
2023-02-13T06:51:49.825Z,80.00
2023-02-13T06:53:10.795Z,84.00
2023-02-13T06:53:49.752Z,96.00
2023-02-13T06:54:49.713Z,100.00
2023-02-13T06:55:49.673Z,108.00
2023-02-13T06:56:49.656Z,116.00
2023-02-13T06:57:49.596Z,128.00
2023-02-13T06:59:10.559Z,132.00
2023-02-13T06:59:49.518Z,144.00
2023-02-13T07:00:49.526Z,152.00
2023-02-13T07:01:49.440Z,164.00
2023-02-13T07:02:49.471Z,172.00
2023-02-13T07:03:49.373Z,180.00
2023-02-13T07:05:10.317Z,188.00
2023-02-13T07:05:49.290Z,200.00
2023-02-13T07:06:49.251Z,208.00
2023-02-13T07:07:49.216Z,216.00
2023-02-13T07:08:49.182Z,228.00
2023-02-13T07:09:49.142Z,236.00
2023-02-13T07:11:10.092Z,244.00
2023-02-13T07:11:49.372Z,256.00
2023-02-13T07:13:03.733Z,264.00
2023-02-13T07:13:48.983Z,272.00
2023-02-13T07:14:48.944Z,280.00
2023-02-13T07:15:48.963Z,288.00
2023-02-13T07:17:09.869Z,300.00
2023-02-13T07:17:48.835Z,308.00
2023-02-13T07:18:48.790Z,316.00
2023-02-13T07:19:48.758Z,324.00
2023-02-13T07:20:48.719Z,332.00
2023-02-13T07:21:48.673Z,340.00
2023-02-13T07:23:09.635Z,348.00
2023-02-13T07:23:48.599Z,356.00
2023-02-13T07:24:48.573Z,364.00
2023-02-13T07:25:48.521Z,372.00
2023-02-13T07:26:48.492Z,380.00
2023-02-13T07:27:48.478Z,384.00
2023-02-13T07:29:11.902Z,392.00
2023-02-13T07:29:48.433Z,400.00
2023-02-13T07:30:48.349Z,412.00
2023-02-13T07:31:48.381Z,416.00
2023-02-13T07:32:48.304Z,420.00
2023-02-13T07:33:48.218Z,432.00
2023-02-13T07:35:09.173Z,436.00
2023-02-13T07:35:48.156Z,444.00
2023-02-13T07:36:48.123Z,448.00
2023-02-13T07:37:48.067Z,452.00
2023-02-13T07:38:48.030Z,460.00
2023-02-13T07:39:47.991Z,464.00
2023-02-13T07:41:08.963Z,472.00
2023-02-13T07:41:47.922Z,476.00
2023-02-13T07:42:47.880Z,480.00
2023-02-13T07:43:47.881Z,488.00
2023-02-13T07:44:47.809Z,492.00
2023-02-13T07:45:47.776Z,496.00
2023-02-13T07:47:08.746Z,504.00
2023-02-13T07:47:47.688Z,508.00
2023-02-13T07:48:47.655Z,512.00
2023-02-13T07:49:47.613Z,520.00
2023-02-13T07:50:47.578Z,520.00
2023-02-13T07:51:47.536Z,524.00
2023-02-13T07:53:08.493Z,532.00
2023-02-13T07:53:47.457Z,536.00
2023-02-13T07:54:47.961Z,540.00
2023-02-13T07:55:47.383Z,544.00
2023-02-13T07:56:47.365Z,548.00
2023-02-13T07:57:47.308Z,552.00
2023-02-13T07:59:08.262Z,556.00
2023-02-13T07:59:47.233Z,560.00
2023-02-13T08:00:47.233Z,564.00
2023-02-13T08:01:47.183Z,568.00
2023-02-13T08:02:47.126Z,568.00
2023-02-13T08:03:47.097Z,576.00
2023-02-13T08:05:08.044Z,580.00
2023-02-13T08:05:47.000Z,580.00
2023-02-13T08:06:46.973Z,588.00
2023-02-13T08:07:46.932Z,592.00
2023-02-13T08:08:46.891Z,592.00
2023-02-13T08:09:46.860Z,600.00
2023-02-13T08:11:07.809Z,600.00
2023-02-13T08:11:46.771Z,604.00
2023-02-13T08:12:46.742Z,612.00
2023-02-13T08:13:46.695Z,612.00
2023-02-13T08:14:46.657Z,612.00
2023-02-13T08:15:46.622Z,616.00
2023-02-13T08:17:07.589Z,620.00
2023-02-13T08:17:46.548Z,624.00
2023-02-13T08:18:46.499Z,628.00
2023-02-13T08:19:46.476Z,632.00
2023-02-13T08:20:46.425Z,632.00
2023-02-13T08:21:46.396Z,632.00
2023-02-13T08:23:07.422Z,636.00
2023-02-13T08:23:46.346Z,636.00
2023-02-13T08:24:46.275Z,640.00
2023-02-13T08:25:46.235Z,644.00
2023-02-13T08:26:46.198Z,644.00
2023-02-13T08:27:46.162Z,652.00
2023-02-13T08:29:07.140Z,652.00
2023-02-13T08:29:46.088Z,656.00
2023-02-13T08:30:46.078Z,656.00
2023-02-13T08:31:46.035Z,656.00
2023-02-13T08:32:54.272Z,660.00
2023-02-13T08:33:45.937Z,664.00
2023-02-13T08:35:06.898Z,664.00
2023-02-13T08:35:45.857Z,668.00
2023-02-13T08:36:45.822Z,668.00
2023-02-13T08:37:47.485Z,672.00
2023-02-13T08:38:45.752Z,672.00
2023-02-13T08:39:45.721Z,676.00
2023-02-13T08:41:06.664Z,680.00
2023-02-13T08:41:45.629Z,680.00
2023-02-13T08:42:45.591Z,680.00
2023-02-13T08:43:45.558Z,684.00
2023-02-13T08:44:45.535Z,684.00
2023-02-13T08:45:45.517Z,688.00
2023-02-13T08:47:06.439Z,688.00
2023-02-13T08:47:45.404Z,692.00
2023-02-13T08:48:45.364Z,696.00
2023-02-13T08:49:45.399Z,696.00
2023-02-13T08:50:45.297Z,700.00
2023-02-13T08:51:45.253Z,700.00
2023-02-13T08:53:06.211Z,704.00
2023-02-13T08:53:45.176Z,704.00
2023-02-13T08:54:45.140Z,708.00
2023-02-13T08:55:45.102Z,708.00
2023-02-13T08:56:45.066Z,708.00
2023-02-13T08:57:45.032Z,708.00
2023-02-13T08:59:05.992Z,712.00
2023-02-13T08:59:44.951Z,716.00
2023-02-13T09:00:44.932Z,716.00
2023-02-13T09:01:44.963Z,716.00
2023-02-13T09:02:44.899Z,716.00
2023-02-13T09:03:44.809Z,720.00
2023-02-13T09:05:05.765Z,720.00
2023-02-13T09:05:44.736Z,724.00
2023-02-13T09:06:44.694Z,724.00
2023-02-13T09:07:44.653Z,728.00
2023-02-13T09:08:44.616Z,728.00
2023-02-13T09:09:44.590Z,732.00
2023-02-13T09:11:05.542Z,732.00
2023-02-13T09:11:44.504Z,736.00
2023-02-13T09:12:44.469Z,740.00
2023-02-13T09:13:44.433Z,740.00
2023-02-13T09:14:44.403Z,740.00
2023-02-13T09:15:44.358Z,744.00
2023-02-13T09:17:05.414Z,748.00
2023-02-13T09:17:44.275Z,752.00
2023-02-13T09:18:44.243Z,752.00
2023-02-13T09:19:44.213Z,752.00
2023-02-13T09:20:44.168Z,756.00
2023-02-13T09:21:44.135Z,760.00
2023-02-13T09:23:05.147Z,760.00
2023-02-13T09:23:44.058Z,768.00
2023-02-13T09:24:44.050Z,772.00
2023-02-13T09:25:43.991Z,768.00
2023-02-13T09:26:43.944Z,772.00
2023-02-13T09:27:43.933Z,772.00
2023-02-13T09:29:04.869Z,776.00
2023-02-13T09:29:43.877Z,776.00
2023-02-13T09:30:43.887Z,780.00
2023-02-13T09:31:43.859Z,780.00
2023-02-13T09:32:43.732Z,780.00
2023-02-13T09:33:43.692Z,784.00
2023-02-13T09:35:04.648Z,788.00
2023-02-13T09:35:43.617Z,788.00
2023-02-13T09:36:43.613Z,792.00
2023-02-13T09:37:43.553Z,796.00
2023-02-13T09:38:43.507Z,796.00
2023-02-13T09:39:43.467Z,796.00
2023-02-13T09:41:04.425Z,800.00
2023-02-13T09:41:43.399Z,804.00
2023-02-13T09:42:43.372Z,808.00
2023-02-13T09:43:43.322Z,812.00
2023-02-13T09:44:43.406Z,816.00
2023-02-13T09:45:43.244Z,816.00
2023-02-13T09:47:04.206Z,816.00
2023-02-13T09:47:43.189Z,824.00
2023-02-13T09:48:43.144Z,824.00
2023-02-13T09:49:43.113Z,828.00
2023-02-13T09:50:43.064Z,832.00
2023-02-13T09:51:43.033Z,840.00
2023-02-13T09:53:03.994Z,840.00
2023-02-13T09:53:42.953Z,844.00
2023-02-13T09:54:42.917Z,848.00
2023-02-13T09:55:42.877Z,852.00
2023-02-13T09:56:42.846Z,856.00
2023-02-13T09:57:42.825Z,856.00
2023-02-13T09:59:03.769Z,860.00
2023-02-13T09:59:42.730Z,864.00
2023-02-13T10:00:42.726Z,868.00
2023-02-13T10:01:42.676Z,868.00
2023-02-13T10:02:42.651Z,876.00
2023-02-13T10:03:42.584Z,884.00
2023-02-13T10:05:03.693Z,892.00
2023-02-13T10:05:42.520Z,896.00
2023-02-13T10:06:42.478Z,900.00
2023-02-13T10:07:42.440Z,900.00
2023-02-13T10:08:42.399Z,908.00
2023-02-13T10:09:42.362Z,912.00
2023-02-13T10:11:03.327Z,916.00
2023-02-13T10:11:42.291Z,920.00
2023-02-13T10:12:42.252Z,920.00
2023-02-13T10:13:42.218Z,940.00
2023-02-13T10:14:42.184Z,948.00
2023-02-13T10:15:42.197Z,944.00
2023-02-13T10:17:03.110Z,1112.00
2023-02-13T10:17:42.072Z,1476.00
2023-02-13T10:18:42.040Z,1608.00
2023-02-13T10:19:42.007Z,1588.00
2023-02-13T10:20:41.981Z,1568.00
2023-02-13T10:21:41.924Z,1540.00
2023-02-13T10:23:02.897Z,1528.00
2023-02-13T10:23:41.869Z,1528.00
2023-02-13T10:24:41.821Z,1532.00
2023-02-13T10:25:41.792Z,1540.00
2023-02-13T10:26:41.768Z,1568.00
2023-02-13T10:27:41.714Z,1660.00
2023-02-13T10:29:02.680Z,1748.00
2023-02-13T10:29:41.668Z,1788.00
2023-02-13T10:30:41.627Z,1824.00
2023-02-13T10:31:41.853Z,1860.00
2023-02-13T10:32:41.548Z,1888.00
2023-02-13T10:33:41.558Z,1908.00
2023-02-13T10:35:02.472Z,1936.00
2023-02-13T10:35:41.474Z,1968.00
2023-02-13T10:36:41.423Z,2000.00
2023-02-13T10:37:41.378Z,2028.00
2023-02-13T10:38:41.343Z,2044.00
2023-02-13T10:39:41.311Z,2076.00
2023-02-13T10:41:02.289Z,2112.00
2023-02-13T10:41:41.253Z,2148.00
2023-02-13T10:42:41.223Z,2176.00
2023-02-13T10:43:41.180Z,2208.00
2023-02-13T10:44:41.148Z,2224.00
2023-02-13T10:45:41.120Z,2268.00
2023-02-13T10:47:02.085Z,2308.00
2023-02-13T10:47:41.058Z,2356.00
2023-02-13T10:48:41.022Z,2400.00
2023-02-13T10:49:40.995Z,2448.00
2023-02-13T10:50:40.973Z,2492.00
2023-02-13T10:51:40.927Z,2544.00
2023-02-13T10:53:01.895Z,2580.00
2023-02-13T10:53:40.863Z,2628.00
2023-02-13T10:54:40.851Z,2676.00
2023-02-13T10:55:40.809Z,2724.00
2023-02-13T10:56:40.780Z,2756.00
2023-02-13T10:57:40.745Z,2788.00
2023-02-13T10:59:01.708Z,2840.00
2023-02-13T10:59:40.756Z,2884.00
2023-02-13T11:00:42.840Z,2940.00
2023-02-13T11:01:40.649Z,2976.00
2023-02-13T11:02:40.589Z,3016.00
2023-02-13T11:03:40.558Z,3088.00
2023-02-13T11:05:01.572Z,3140.00
2023-02-13T11:05:40.506Z,3184.00
2023-02-13T11:06:40.482Z,3244.00
2023-02-13T11:07:40.437Z,3304.00
2023-02-13T11:08:40.413Z,3348.00
2023-02-13T11:09:40.401Z,3404.00
2023-02-13T11:11:01.344Z,3472.00
2023-02-13T11:11:40.369Z,3532.00
2023-02-13T11:12:40.287Z,3616.00
2023-02-13T11:13:40.257Z,3704.00
2023-02-13T11:14:40.235Z,3792.00
2023-02-13T11:15:40.304Z,3900.00
2023-02-13T11:17:01.175Z,3996.00
2023-02-13T11:17:40.139Z,4092.00
2023-02-13T11:18:40.108Z,4188.00
2023-02-13T11:19:40.079Z,4272.00
2023-02-13T11:20:40.059Z,4364.00
2023-02-13T11:21:40.031Z,4476.00
2023-02-13T11:23:00.997Z,4556.00
2023-02-13T11:23:39.965Z,4664.00
2023-02-13T11:24:39.977Z,4768.00
2023-02-13T11:25:39.906Z,4840.00
2023-02-13T11:26:39.897Z,4912.00
2023-02-13T11:27:39.889Z,5000.00
2023-02-13T11:29:00.823Z,5068.00
2023-02-13T11:29:39.818Z,5136.00
2023-02-13T11:30:39.759Z,5200.00
2023-02-13T11:31:39.877Z,5280.00
2023-02-13T11:32:39.703Z,5336.00
2023-02-13T11:33:39.677Z,5412.00
2023-02-13T11:35:00.647Z,5512.00
2023-02-13T11:35:39.612Z,5560.00
2023-02-13T11:36:39.588Z,5640.00
2023-02-13T11:37:39.558Z,5700.00
2023-02-13T11:38:39.531Z,5756.00
2023-02-13T11:39:39.500Z,5820.00
2023-02-13T11:41:00.482Z,5892.00
2023-02-13T11:41:39.441Z,5972.00
2023-02-13T11:42:39.427Z,6036.00
2023-02-13T11:43:39.390Z,6092.00
2023-02-13T11:44:39.409Z,6144.00
2023-02-13T11:45:39.323Z,6220.00
2023-02-13T11:47:00.398Z,6284.00
2023-02-13T11:47:39.312Z,6340.00
2023-02-13T11:48:39.247Z,6404.00
2023-02-13T11:49:39.215Z,6476.00
2023-02-13T11:50:39.183Z,6536.00
2023-02-13T11:51:39.158Z,6588.00
2023-02-13T11:53:00.147Z,6676.00
2023-02-13T11:53:39.094Z,6732.00
2023-02-13T11:54:39.084Z,6780.00
2023-02-13T11:55:39.082Z,6868.00
2023-02-13T11:56:45.747Z,6928.00
2023-02-13T11:57:39.002Z,6980.00
2023-02-13T11:59:00.035Z,7012.00
2023-02-13T11:59:38.923Z,7084.00
2023-02-13T12:00:38.907Z,7124.00
2023-02-13T12:01:38.872Z,7172.00
2023-02-13T12:02:38.855Z,7224.00
2023-02-13T12:03:38.928Z,7316.00
2023-02-13T12:04:59.782Z,7328.00
2023-02-13T12:05:38.758Z,7392.00
2023-02-13T12:06:38.725Z,7456.00
2023-02-13T12:07:38.696Z,7512.00
2023-02-13T12:08:38.671Z,7564.00
2023-02-13T12:09:38.641Z,7640.00
2023-02-13T12:10:59.615Z,7720.00
2023-02-13T12:11:38.589Z,7764.00
2023-02-13T12:12:38.557Z,7836.00
2023-02-13T12:13:38.528Z,7888.00
2023-02-13T12:14:38.496Z,7944.00
2023-02-13T12:15:38.466Z,7976.00
2023-02-13T12:16:59.443Z,7996.00
2023-02-13T12:17:38.457Z,8064.00
2023-02-13T12:18:38.384Z,8112.00
2023-02-13T12:19:38.353Z,8188.00
2023-02-13T12:20:38.334Z,8280.00
2023-02-13T12:21:38.315Z,8340.00
2023-02-13T12:22:59.267Z,8364.00
2023-02-13T12:23:38.243Z,8356.00
2023-02-13T12:24:38.213Z,8432.00
2023-02-13T12:25:38.179Z,8500.00
2023-02-13T12:26:38.163Z,8584.00
2023-02-13T12:27:38.124Z,8624.00
2023-02-13T12:28:59.180Z,8644.00
2023-02-13T12:29:38.098Z,8684.00
2023-02-13T12:30:38.047Z,8748.00
2023-02-13T12:31:38.089Z,8788.00
2023-02-13T12:32:37.983Z,8868.00
2023-02-13T12:33:37.951Z,8912.00
2023-02-13T12:34:58.937Z,8952.00
2023-02-13T12:35:37.921Z,8992.00
2023-02-13T12:36:37.867Z,9020.00
2023-02-13T12:37:37.839Z,9080.00
2023-02-13T12:38:37.812Z,9100.00
2023-02-13T12:39:37.792Z,9136.00
2023-02-13T12:40:59.203Z,9212.00
2023-02-13T12:41:37.729Z,9276.00
2023-02-13T12:42:37.696Z,9308.00
2023-02-13T12:43:37.671Z,9400.00
2023-02-13T12:44:37.647Z,9436.00
2023-02-13T12:45:37.666Z,9496.00
2023-02-13T12:46:58.585Z,9500.00
2023-02-13T12:47:37.556Z,9516.00
2023-02-13T12:48:37.558Z,9568.00